createdAt,value
2018-11-05T00:00:06.293Z,65.20
2018-11-05T00:00:37.385Z,65.20
2018-11-05T00:01:08.481Z,65.20
2018-11-05T00:01:39.565Z,65.20
2018-11-05T00:02:10.658Z,65.20
2018-11-05T00:02:41.741Z,65.20
2018-11-05T00:03:12.833Z,66.00
2018-11-05T00:03:43.914Z,65.20
2018-11-05T00:04:15.001Z,65.20
2018-11-05T00:04:46.100Z,65.30
2018-11-05T00:05:17.197Z,65.20
2018-11-05T00:05:48.295Z,66.00
2018-11-05T00:06:19.381Z,65.20
2018-11-05T00:06:50.479Z,65.30
2018-11-05T00:07:21.562Z,65.20
2018-11-05T00:07:52.654Z,65.30
2018-11-05T00:08:23.737Z,65.30
2018-11-05T00:08:54.834Z,65.20
2018-11-05T00:09:25.914Z,65.30
2018-11-05T00:09:57.010Z,65.30
2018-11-05T00:10:28.094Z,65.30
2018-11-05T00:10:59.189Z,65.30
2018-11-05T00:11:30.273Z,65.30
2018-11-05T00:12:01.360Z,65.20
2018-11-05T00:12:32.451Z,65.30
2018-11-05T00:13:03.548Z,65.30
2018-11-05T00:13:34.631Z,65.30
2018-11-05T00:14:05.719Z,65.30
2018-11-05T00:14:36.806Z,65.30
2018-11-05T00:15:07.894Z,65.30
2018-11-05T00:15:38.978Z,65.30
2018-11-05T00:16:10.075Z,65.40
2018-11-05T00:16:41.155Z,65.30
2018-11-05T00:17:12.235Z,65.30
2018-11-05T00:17:43.331Z,65.30
2018-11-05T00:18:14.416Z,65.30
2018-11-05T00:18:45.509Z,65.30
2018-11-05T00:19:16.596Z,65.30
2018-11-05T00:19:47.697Z,65.20
2018-11-05T00:20:18.780Z,65.30
2018-11-05T00:20:49.861Z,65.30
2018-11-05T00:21:20.948Z,65.50
2018-11-05T00:21:52.036Z,65.30
2018-11-05T00:22:23.127Z,65.30
2018-11-05T00:22:54.217Z,65.30
2018-11-05T00:23:25.312Z,65.30
2018-11-05T00:23:56.392Z,65.30
2018-11-05T00:24:27.480Z,65.30
2018-11-05T00:24:58.588Z,65.30
2018-11-05T00:25:29.672Z,65.30
2018-11-05T00:26:00.758Z,65.30
2018-11-05T00:26:31.922Z,65.30
2018-11-05T00:27:03.010Z,65.30
2018-11-05T00:27:34.096Z,65.30
2018-11-05T00:28:05.179Z,65.30
2018-11-05T00:28:36.265Z,65.30
2018-11-05T00:29:07.354Z,65.30
2018-11-05T00:29:38.437Z,65.30
2018-11-05T00:30:09.534Z,65.40
2018-11-05T00:30:40.617Z,65.40
2018-11-05T00:31:11.706Z,65.50
2018-11-05T00:31:42.790Z,65.40
2018-11-05T00:32:13.876Z,65.40
2018-11-05T00:32:44.970Z,65.40
2018-11-05T00:33:16.070Z,65.40
2018-11-05T00:33:47.160Z,65.40
2018-11-05T00:34:18.250Z,65.40
2018-11-05T00:34:49.329Z,65.40
2018-11-05T00:35:20.430Z,65.30
2018-11-05T00:35:51.514Z,65.40
2018-11-05T00:36:22.605Z,65.50
2018-11-05T00:36:53.694Z,65.50
2018-11-05T00:37:24.783Z,65.50
2018-11-05T00:37:55.872Z,65.50
2018-11-05T00:38:26.955Z,65.50
2018-11-05T00:38:58.050Z,65.50
2018-11-05T00:39:29.141Z,65.50
2018-11-05T00:40:00.243Z,65.50
2018-11-05T00:40:31.331Z,65.50
2018-11-05T00:41:02.419Z,65.40
2018-11-05T00:41:33.499Z,65.50
2018-11-05T00:42:04.607Z,65.50
2018-11-05T00:42:35.694Z,65.40
2018-11-05T00:43:06.771Z,65.50
2018-11-05T00:43:37.868Z,65.40
2018-11-05T00:44:08.947Z,65.40
2018-11-05T00:44:40.039Z,65.40
2018-11-05T00:45:11.140Z,65.40
2018-11-05T00:45:42.296Z,65.50
2018-11-05T00:46:13.329Z,65.50
2018-11-05T00:46:44.413Z,65.50
2018-11-05T00:47:15.504Z,65.50
2018-11-05T00:47:46.592Z,65.50
2018-11-05T00:48:17.672Z,65.50
2018-11-05T00:48:48.764Z,65.50
2018-11-05T00:49:19.844Z,65.50
2018-11-05T00:49:50.928Z,65.90
2018-11-05T00:50:22.038Z,65.50
2018-11-05T00:50:53.120Z,65.60
2018-11-05T00:51:24.200Z,65.50
2018-11-05T00:51:55.284Z,65.50
2018-11-05T00:52:26.377Z,65.50
2018-11-05T00:52:57.457Z,65.50
2018-11-05T00:53:28.552Z,65.60
2018-11-05T00:53:59.641Z,65.50
2018-11-05T00:54:30.733Z,65.50
2018-11-05T00:55:01.833Z,65.50
2018-11-05T00:55:32.925Z,65.50
2018-11-05T00:56:04.008Z,65.50
2018-11-05T00:56:35.103Z,65.50
2018-11-05T00:57:06.200Z,65.50
2018-11-05T00:57:37.290Z,65.60
2018-11-05T00:58:08.377Z,65.50
2018-11-05T00:58:39.466Z,65.60
2018-11-05T00:59:10.554Z,65.50
2018-11-05T00:59:41.640Z,65.50
2018-11-05T01:00:12.741Z,65.60
2018-11-05T01:00:43.835Z,65.50
2018-11-05T01:01:14.930Z,65.50
2018-11-05T01:01:46.827Z,65.50
2018-11-05T01:02:17.971Z,65.50
2018-11-05T01:02:49.083Z,65.50
2018-11-05T01:03:20.175Z,65.50
2018-11-05T01:03:51.266Z,65.60
2018-11-05T01:04:22.352Z,65.60
2018-11-05T01:04:53.438Z,65.60
2018-11-05T01:05:24.558Z,65.60
2018-11-05T01:05:55.728Z,65.60
2018-11-05T01:06:26.819Z,65.60
2018-11-05T01:06:57.907Z,65.70
2018-11-05T01:07:28.981Z,65.70
2018-11-05T01:08:00.091Z,65.70
2018-11-05T01:08:31.175Z,65.70
2018-11-05T01:09:02.277Z,65.70
2018-11-05T01:09:33.355Z,65.70
2018-11-05T01:10:04.440Z,65.70
2018-11-05T01:10:35.540Z,65.70
2018-11-05T01:11:06.632Z,65.70
2018-11-05T01:11:37.716Z,65.70
2018-11-05T01:12:08.812Z,65.70
2018-11-05T01:12:39.895Z,65.60
2018-11-05T01:13:10.976Z,65.70
2018-11-05T01:13:42.065Z,65.70
2018-11-05T01:14:13.160Z,65.70
2018-11-05T01:14:44.258Z,65.70
2018-11-05T01:15:15.344Z,65.70
2018-11-05T01:15:46.444Z,65.70
2018-11-05T01:16:17.527Z,65.70
2018-11-05T01:16:48.620Z,65.70
2018-11-05T01:17:19.704Z,65.70
2018-11-05T01:17:50.797Z,65.70
2018-11-05T01:18:21.884Z,65.70
2018-11-05T01:18:52.965Z,65.70
2018-11-05T01:19:24.054Z,65.70
2018-11-05T01:19:55.313Z,66.00
2018-11-05T01:20:26.400Z,65.70
2018-11-05T01:20:57.503Z,65.80
2018-11-05T01:21:28.597Z,65.70
2018-11-05T01:21:59.678Z,65.80
2018-11-05T01:22:30.764Z,65.80
2018-11-05T01:23:01.856Z,65.70
2018-11-05T01:23:32.941Z,65.80
2018-11-05T01:24:04.026Z,65.80
2018-11-05T01:24:35.109Z,65.80
2018-11-05T01:25:06.203Z,65.80
2018-11-05T01:25:37.338Z,65.80
2018-11-05T01:26:08.439Z,65.80
2018-11-05T01:26:39.530Z,65.80
2018-11-05T01:27:10.618Z,65.80
2018-11-05T01:27:41.707Z,65.80
2018-11-05T01:28:12.795Z,65.80
2018-11-05T01:28:43.890Z,65.80
2018-11-05T01:29:14.975Z,65.80
2018-11-05T01:29:46.062Z,65.80
2018-11-05T01:30:17.166Z,65.80
2018-11-05T01:30:48.267Z,65.80
2018-11-05T01:31:19.351Z,65.80
2018-11-05T01:31:50.459Z,65.80
2018-11-05T01:32:21.541Z,65.80
2018-11-05T01:32:52.636Z,65.80
2018-11-05T01:33:23.723Z,65.80
2018-11-05T01:33:54.819Z,65.80
2018-11-05T01:34:25.895Z,65.80
2018-11-05T01:34:57.072Z,66.50
2018-11-05T01:35:28.147Z,65.80
2018-11-05T01:35:59.259Z,65.60
2018-11-05T01:36:30.343Z,65.80
2018-11-05T01:37:01.484Z,65.80
2018-11-05T01:37:32.537Z,65.80
2018-11-05T01:38:03.628Z,65.80
2018-11-05T01:38:34.707Z,65.80
2018-11-05T01:39:05.796Z,65.80
2018-11-05T01:39:36.885Z,65.80
2018-11-05T01:40:07.975Z,65.80
2018-11-05T01:40:39.068Z,65.80
2018-11-05T01:41:10.156Z,65.80
2018-11-05T01:41:41.259Z,65.80
2018-11-05T01:42:12.337Z,65.80
2018-11-05T01:42:43.431Z,65.80
2018-11-05T01:43:14.528Z,65.80
2018-11-05T01:43:45.619Z,65.80
2018-11-05T01:44:16.704Z,65.80
2018-11-05T01:44:47.792Z,65.80
2018-11-05T01:45:18.883Z,65.90
2018-11-05T01:45:49.976Z,65.90
2018-11-05T01:46:21.070Z,65.90
2018-11-05T01:46:52.161Z,65.90
2018-11-05T01:47:23.249Z,66.70
2018-11-05T01:47:54.340Z,65.90
2018-11-05T01:48:25.428Z,66.00
2018-11-05T01:48:56.513Z,65.90
2018-11-05T01:49:27.605Z,66.00
2018-11-05T01:49:58.680Z,66.00
2018-11-05T01:50:29.772Z,66.00
2018-11-05T01:51:00.848Z,66.00
2018-11-05T01:51:31.947Z,66.00
2018-11-05T01:52:03.026Z,66.00
2018-11-05T01:52:34.129Z,65.90
2018-11-05T01:53:05.213Z,66.00
2018-11-05T01:53:36.514Z,66.00
2018-11-05T01:54:07.605Z,66.00
2018-11-05T01:54:38.693Z,66.00
2018-11-05T01:55:09.778Z,66.00
2018-11-05T01:55:40.873Z,66.00
2018-11-05T01:56:11.964Z,66.00
2018-11-05T01:56:43.047Z,66.00
2018-11-05T01:57:14.147Z,66.10
2018-11-05T01:57:45.237Z,66.10
2018-11-05T01:58:16.322Z,66.10
2018-11-05T01:58:47.414Z,66.10
2018-11-05T01:59:18.508Z,66.10
2018-11-05T01:59:49.603Z,66.10
2018-11-05T02:00:20.690Z,66.10
2018-11-05T02:00:51.798Z,66.10
2018-11-05T02:01:22.893Z,66.10
2018-11-05T02:01:53.980Z,66.10
2018-11-05T02:02:25.066Z,66.10
2018-11-05T02:02:56.159Z,66.50
2018-11-05T02:03:27.250Z,66.10
2018-11-05T02:03:58.339Z,66.10
2018-11-05T02:04:29.439Z,66.10
2018-11-05T02:05:00.535Z,66.00
2018-11-05T02:05:31.633Z,66.10
2018-11-05T02:06:02.733Z,66.10
2018-11-05T02:06:33.819Z,66.10
2018-11-05T02:07:04.907Z,66.10
2018-11-05T02:07:36.002Z,66.10
2018-11-05T02:08:07.091Z,66.10
2018-11-05T02:08:38.176Z,66.10
2018-11-05T02:09:09.260Z,66.10
2018-11-05T02:09:40.343Z,66.10
2018-11-05T02:10:11.426Z,66.10
2018-11-05T02:10:42.532Z,66.10
2018-11-05T02:11:13.624Z,66.00
2018-11-05T02:11:44.711Z,66.10
2018-11-05T02:12:15.808Z,66.10
2018-11-05T02:12:46.987Z,66.10
2018-11-05T02:13:18.112Z,66.10
2018-11-05T02:13:49.184Z,66.10
2018-11-05T02:14:20.277Z,66.10
2018-11-05T02:14:51.356Z,66.10
2018-11-05T02:15:22.448Z,65.70
2018-11-05T02:15:53.636Z,66.10
2018-11-05T02:16:24.654Z,66.10
2018-11-05T02:16:55.737Z,66.10
2018-11-05T02:17:26.831Z,66.10
2018-11-05T02:17:57.913Z,66.10
2018-11-05T02:18:29.004Z,66.10
2018-11-05T02:19:00.093Z,66.10
2018-11-05T02:19:31.177Z,66.10
2018-11-05T02:20:02.265Z,66.10
2018-11-05T02:20:33.355Z,66.10
2018-11-05T02:21:04.458Z,66.10
2018-11-05T02:21:35.553Z,66.10
2018-11-05T02:22:06.637Z,66.20
2018-11-05T02:22:37.726Z,66.10
2018-11-05T02:23:08.825Z,66.20
2018-11-05T02:23:39.910Z,66.10
2018-11-05T02:24:11.005Z,66.20
2018-11-05T02:24:42.090Z,66.20
2018-11-05T02:25:13.182Z,66.10
2018-11-05T02:25:44.278Z,66.20
2018-11-05T02:26:15.362Z,66.20
2018-11-05T02:26:46.462Z,66.20
2018-11-05T02:27:17.591Z,66.20
2018-11-05T02:27:48.658Z,66.20
2018-11-05T02:28:19.746Z,66.20
2018-11-05T02:28:50.834Z,66.20
2018-11-05T02:29:22.009Z,66.20
2018-11-05T02:29:53.097Z,66.30
2018-11-05T02:30:24.184Z,66.30
2018-11-05T02:30:55.271Z,66.20
2018-11-05T02:31:26.386Z,67.10
2018-11-05T02:31:57.503Z,66.30
2018-11-05T02:32:28.592Z,66.30
2018-11-05T02:32:59.687Z,66.30
2018-11-05T02:33:30.791Z,66.30
2018-11-05T02:34:01.883Z,66.30
2018-11-05T02:34:32.963Z,66.30
2018-11-05T02:35:04.044Z,66.30
2018-11-05T02:35:35.132Z,66.30
2018-11-05T02:36:06.212Z,67.10
2018-11-05T02:36:37.308Z,66.30
2018-11-05T02:37:08.405Z,66.40
2018-11-05T02:37:39.479Z,66.40
2018-11-05T02:38:10.572Z,66.40
2018-11-05T02:38:41.648Z,66.40
2018-11-05T02:39:12.732Z,66.40
2018-11-05T02:39:43.816Z,66.40
2018-11-05T02:40:14.921Z,66.40
2018-11-05T02:40:46.021Z,66.40
2018-11-05T02:41:17.101Z,67.20
2018-11-05T02:41:48.176Z,66.40
2018-11-05T02:42:19.276Z,66.40
2018-11-05T02:42:50.366Z,66.40
2018-11-05T02:43:21.469Z,66.40
2018-11-05T02:43:52.552Z,66.80
2018-11-05T02:44:23.643Z,66.40
2018-11-05T02:44:54.736Z,66.40
2018-11-05T02:45:25.826Z,66.40
2018-11-05T02:45:56.913Z,66.40
2018-11-05T02:46:28.010Z,66.70
2018-11-05T02:46:59.102Z,66.40
2018-11-05T02:47:30.198Z,66.40
2018-11-05T02:48:01.292Z,66.40
2018-11-05T02:48:32.378Z,66.40
2018-11-05T02:49:03.467Z,66.30
2018-11-05T02:49:34.555Z,66.40
2018-11-05T02:50:05.643Z,66.30
2018-11-05T02:50:36.806Z,66.40
2018-11-05T02:51:07.898Z,66.30
2018-11-05T02:51:38.982Z,66.40
2018-11-05T02:52:10.069Z,66.40
2018-11-05T02:52:41.171Z,66.40
2018-11-05T02:53:12.263Z,66.30
2018-11-05T02:53:43.350Z,66.40
2018-11-05T02:54:14.465Z,66.40
2018-11-05T02:54:45.560Z,66.30
2018-11-05T02:55:16.671Z,67.10
2018-11-05T02:55:47.759Z,66.40
2018-11-05T02:56:18.843Z,66.20
2018-11-05T02:56:49.954Z,66.30
2018-11-05T02:57:21.047Z,66.40
2018-11-05T02:57:52.129Z,66.40
2018-11-05T02:58:23.240Z,66.30
2018-11-05T02:58:54.335Z,66.30
2018-11-05T02:59:25.426Z,66.20
2018-11-05T02:59:56.515Z,66.20
2018-11-05T03:00:27.600Z,66.20
2018-11-05T03:00:58.688Z,66.20
2018-11-05T03:01:29.772Z,66.10
2018-11-05T03:02:00.860Z,66.20
2018-11-05T03:02:31.944Z,66.20
2018-11-05T03:03:03.095Z,66.20
2018-11-05T03:03:34.136Z,66.10
2018-11-05T03:04:05.220Z,66.10
2018-11-05T03:04:36.304Z,66.10
2018-11-05T03:05:07.396Z,66.10
2018-11-05T03:05:38.493Z,66.10
2018-11-05T03:06:09.596Z,66.10
2018-11-05T03:06:40.686Z,66.10
2018-11-05T03:07:11.773Z,66.10
2018-11-05T03:07:42.865Z,66.00
2018-11-05T03:08:13.953Z,66.00
2018-11-05T03:08:45.042Z,65.90
2018-11-05T03:09:16.125Z,66.00
2018-11-05T03:09:47.213Z,66.00
2018-11-05T03:10:18.336Z,66.00
2018-11-05T03:10:49.425Z,66.00
2018-11-05T03:11:20.514Z,65.90
2018-11-05T03:11:51.610Z,65.80
2018-11-05T03:12:22.700Z,65.90
2018-11-05T03:12:53.786Z,65.80
2018-11-05T03:13:24.877Z,65.80
2018-11-05T03:13:55.967Z,65.80
2018-11-05T03:14:27.066Z,65.70
2018-11-05T03:14:58.153Z,65.70
2018-11-05T03:15:29.245Z,65.70
2018-11-05T03:16:00.330Z,65.70
2018-11-05T03:16:31.422Z,65.70
2018-11-05T03:17:02.511Z,65.70
2018-11-05T03:17:33.602Z,65.70
2018-11-05T03:18:04.703Z,66.40
2018-11-05T03:18:35.789Z,65.60
2018-11-05T03:19:06.894Z,65.50
2018-11-05T03:19:37.987Z,65.50
2018-11-05T03:20:09.076Z,65.50
2018-11-05T03:20:40.170Z,65.50
2018-11-05T03:21:11.275Z,65.50
2018-11-05T03:21:42.368Z,65.40
2018-11-05T03:22:13.463Z,65.40
2018-11-05T03:22:44.559Z,65.50
2018-11-05T03:23:15.654Z,65.40
2018-11-05T03:23:46.755Z,65.40
2018-11-05T03:24:17.834Z,65.40
2018-11-05T03:24:48.947Z,65.30
2018-11-05T03:25:20.028Z,65.30
2018-11-05T03:25:51.116Z,65.30
2018-11-05T03:26:22.203Z,65.30
2018-11-05T03:26:53.297Z,65.30
2018-11-05T03:27:24.392Z,65.20
2018-11-05T03:27:55.487Z,65.30
2018-11-05T03:28:26.573Z,65.30
2018-11-05T03:28:57.669Z,65.20
2018-11-05T03:29:28.768Z,65.20
2018-11-05T03:29:59.858Z,65.20
2018-11-05T03:30:30.953Z,65.10
2018-11-05T03:31:02.044Z,65.10
2018-11-05T03:31:33.137Z,65.10
2018-11-05T03:32:04.233Z,65.00
2018-11-05T03:32:35.323Z,65.10
2018-11-05T03:33:06.441Z,65.00
2018-11-05T03:33:37.533Z,65.00
2018-11-05T03:34:08.614Z,64.90
2018-11-05T03:34:39.773Z,64.90
2018-11-05T03:35:10.863Z,64.90
2018-11-05T03:35:41.992Z,64.90
2018-11-05T03:36:13.053Z,64.90
2018-11-05T03:36:44.149Z,64.80
2018-11-05T03:37:15.335Z,64.80
2018-11-05T03:37:46.431Z,64.80
2018-11-05T03:38:17.545Z,65.40
2018-11-05T03:38:48.650Z,64.70
2018-11-05T03:39:19.739Z,64.80
2018-11-05T03:39:50.826Z,64.80
2018-11-05T03:40:21.921Z,64.80
2018-11-05T03:40:53.002Z,64.80
2018-11-05T03:41:24.086Z,64.80
2018-11-05T03:41:55.179Z,64.80
2018-11-05T03:42:26.279Z,64.80
2018-11-05T03:42:57.386Z,64.80
2018-11-05T03:43:28.491Z,64.80
2018-11-05T03:43:59.582Z,64.80
2018-11-05T03:44:30.675Z,64.90
2018-11-05T03:45:01.755Z,64.80
2018-11-05T03:45:32.858Z,64.80
2018-11-05T03:46:03.945Z,64.80
2018-11-05T03:46:35.046Z,64.80
2018-11-05T03:47:06.135Z,64.80
2018-11-05T03:47:37.219Z,64.90
2018-11-05T03:48:08.310Z,64.90
2018-11-05T03:48:39.405Z,64.90
2018-11-05T03:49:10.510Z,64.90
2018-11-05T03:49:41.599Z,64.80
2018-11-05T03:50:12.689Z,64.90
2018-11-05T03:50:43.779Z,64.90
2018-11-05T03:51:14.868Z,64.90
2018-11-05T03:51:45.957Z,64.90
2018-11-05T03:52:17.079Z,64.90
2018-11-05T03:52:48.180Z,64.90
2018-11-05T03:53:19.273Z,64.90
2018-11-05T03:53:50.356Z,64.90
2018-11-05T03:54:21.445Z,64.90
2018-11-05T03:54:52.535Z,65.80
2018-11-05T03:55:23.654Z,64.90
2018-11-05T03:55:54.758Z,64.90
2018-11-05T03:56:25.849Z,64.90
2018-11-05T03:56:56.960Z,64.90
2018-11-05T03:57:28.050Z,64.90
2018-11-05T03:57:59.133Z,64.90
2018-11-05T03:58:30.213Z,64.90
2018-11-05T03:59:01.304Z,64.90
2018-11-05T03:59:32.388Z,64.90
2018-11-05T04:00:03.478Z,65.00
2018-11-05T04:00:34.570Z,64.90
2018-11-05T04:01:05.657Z,64.90
2018-11-05T04:01:36.749Z,64.90
2018-11-05T04:02:07.845Z,65.00
2018-11-05T04:02:38.929Z,64.90
2018-11-05T04:03:10.040Z,64.90
2018-11-05T04:03:41.117Z,65.00
2018-11-05T04:04:12.210Z,64.90
2018-11-05T04:04:43.303Z,65.00
2018-11-05T04:05:14.393Z,65.00
2018-11-05T04:05:45.476Z,64.90
2018-11-05T04:06:16.568Z,64.90
2018-11-05T04:06:47.679Z,65.00
2018-11-05T04:07:18.782Z,64.90
2018-11-05T04:07:49.872Z,65.00
2018-11-05T04:08:20.974Z,64.90
2018-11-05T04:08:52.063Z,64.90
2018-11-05T04:09:23.157Z,64.90
2018-11-05T04:09:54.246Z,64.90
2018-11-05T04:10:25.336Z,64.90
2018-11-05T04:10:56.433Z,64.90
2018-11-05T04:11:27.526Z,64.90
2018-11-05T04:11:58.611Z,64.90
2018-11-05T04:12:29.715Z,64.90
2018-11-05T04:13:00.795Z,64.90
2018-11-05T04:13:31.882Z,65.00
2018-11-05T04:14:02.977Z,65.00
2018-11-05T04:14:34.065Z,65.00
2018-11-05T04:15:05.148Z,65.00
2018-11-05T04:15:36.282Z,65.00
2018-11-05T04:16:07.436Z,65.00
2018-11-05T04:16:38.444Z,64.90
2018-11-05T04:17:09.527Z,65.00
2018-11-05T04:17:40.634Z,65.00
2018-11-05T04:18:11.703Z,65.00
2018-11-05T04:18:42.786Z,65.00
2018-11-05T04:19:13.868Z,65.00
2018-11-05T04:19:44.948Z,65.00
2018-11-05T04:20:16.044Z,65.00
2018-11-05T04:20:47.123Z,65.00
2018-11-05T04:21:18.211Z,65.20
2018-11-05T04:21:49.296Z,65.00
2018-11-05T04:22:20.379Z,65.20
2018-11-05T04:22:51.468Z,65.10
2018-11-05T04:23:22.561Z,65.10
2018-11-05T04:23:53.641Z,65.10
2018-11-05T04:24:24.736Z,65.10
2018-11-05T04:24:55.823Z,65.10
2018-11-05T04:25:26.913Z,65.10
2018-11-05T04:25:57.996Z,65.10
2018-11-05T04:26:29.080Z,65.10
2018-11-05T04:27:00.168Z,65.10
2018-11-05T04:27:31.267Z,65.10
2018-11-05T04:28:02.399Z,65.20
2018-11-05T04:28:33.504Z,65.10
2018-11-05T04:29:04.580Z,65.10
2018-11-05T04:29:35.671Z,65.10
2018-11-05T04:30:06.775Z,65.10
2018-11-05T04:30:37.862Z,65.20
2018-11-05T04:31:08.970Z,65.10
2018-11-05T04:31:40.062Z,65.10
2018-11-05T04:32:11.153Z,65.10
2018-11-05T04:32:42.251Z,65.20
2018-11-05T04:33:13.362Z,65.20
2018-11-05T04:33:44.467Z,65.20
2018-11-05T04:34:15.550Z,65.20
2018-11-05T04:34:46.634Z,65.20
2018-11-05T04:35:17.717Z,65.10
2018-11-05T04:35:48.811Z,65.20
2018-11-05T04:36:19.894Z,65.20
2018-11-05T04:36:50.979Z,65.20
2018-11-05T04:37:22.080Z,65.10
2018-11-05T04:37:53.174Z,65.20
2018-11-05T04:38:24.263Z,65.10
2018-11-05T04:38:55.355Z,65.20
2018-11-05T04:39:26.435Z,65.20
2018-11-05T04:39:57.523Z,65.20
2018-11-05T04:40:28.622Z,65.20
2018-11-05T04:40:59.711Z,65.20
2018-11-05T04:41:30.791Z,65.20
2018-11-05T04:42:01.885Z,65.20
2018-11-05T04:42:33.075Z,65.20
2018-11-05T04:43:04.167Z,65.20
2018-11-05T04:43:35.256Z,65.20
2018-11-05T04:44:06.342Z,65.20
2018-11-05T04:44:37.459Z,65.20
2018-11-05T04:45:08.544Z,65.20
2018-11-05T04:45:39.632Z,65.20
2018-11-05T04:46:10.720Z,65.20
2018-11-05T04:46:41.809Z,65.20
2018-11-05T04:47:12.903Z,65.10
2018-11-05T04:47:43.987Z,65.10
2018-11-05T04:48:15.065Z,65.20
2018-11-05T04:48:46.165Z,65.20
2018-11-05T04:49:17.249Z,65.20
2018-11-05T04:49:48.345Z,65.20
2018-11-05T04:50:19.452Z,65.20
2018-11-05T04:50:50.550Z,65.20
2018-11-05T04:51:21.641Z,65.20
2018-11-05T04:51:52.729Z,65.20
2018-11-05T04:52:23.821Z,65.20
2018-11-05T04:52:54.913Z,65.20
2018-11-05T04:53:26.093Z,65.20
2018-11-05T04:53:57.175Z,65.20
2018-11-05T04:54:28.271Z,65.20
2018-11-05T04:54:59.373Z,65.20
2018-11-05T04:55:30.472Z,65.20
2018-11-05T04:56:01.567Z,65.20
2018-11-05T04:56:32.661Z,65.20
2018-11-05T04:57:03.754Z,65.10
2018-11-05T04:57:34.843Z,65.20
2018-11-05T04:58:05.938Z,65.20
2018-11-05T04:58:37.021Z,65.20
2018-11-05T04:59:08.119Z,65.10
2018-11-05T04:59:39.208Z,65.00
2018-11-05T05:00:10.302Z,65.10
2018-11-05T05:00:41.394Z,65.00
2018-11-05T05:01:12.490Z,65.00
2018-11-05T05:01:43.584Z,65.00
2018-11-05T05:02:14.670Z,65.00
2018-11-05T05:02:45.758Z,65.00
2018-11-05T05:03:16.958Z,65.00
2018-11-05T05:03:47.967Z,65.00
2018-11-05T05:04:19.050Z,65.00
2018-11-05T05:04:50.145Z,65.00
2018-11-05T05:05:21.251Z,65.00
2018-11-05T05:05:52.332Z,65.10
2018-11-05T05:06:23.419Z,65.00
2018-11-05T05:06:54.511Z,65.00
2018-11-05T05:07:25.587Z,65.10
2018-11-05T05:07:56.679Z,65.10
2018-11-05T05:08:27.788Z,65.10
2018-11-05T05:08:58.871Z,65.00
2018-11-05T05:09:29.967Z,65.10
2018-11-05T05:10:01.049Z,65.20
2018-11-05T05:10:32.135Z,65.10
2018-11-05T05:11:03.215Z,65.10
2018-11-05T05:11:34.300Z,65.20
2018-11-05T05:12:05.401Z,65.10
2018-11-05T05:12:36.487Z,65.00
2018-11-05T05:13:07.568Z,65.10
2018-11-05T05:13:38.662Z,65.20
2018-11-05T05:14:09.750Z,65.00
2018-11-05T05:14:40.839Z,65.10
2018-11-05T05:15:11.931Z,65.10
2018-11-05T05:15:43.017Z,65.10
2018-11-05T05:16:14.157Z,65.20
2018-11-05T05:16:45.221Z,65.20
2018-11-05T05:17:16.318Z,65.20
2018-11-05T05:17:47.405Z,65.20
2018-11-05T05:18:18.494Z,65.20
2018-11-05T05:18:49.608Z,65.20
2018-11-05T05:19:20.688Z,65.20
2018-11-05T05:19:51.832Z,65.10
2018-11-05T05:20:22.892Z,65.20
2018-11-05T05:20:53.981Z,65.20
2018-11-05T05:21:25.070Z,65.20
2018-11-05T05:21:56.161Z,65.20
2018-11-05T05:22:27.380Z,65.40
2018-11-05T05:22:58.483Z,65.20
2018-11-05T05:23:29.473Z,65.20
2018-11-05T05:24:00.557Z,65.20
2018-11-05T05:24:31.645Z,65.20
2018-11-05T05:25:02.988Z,65.20
2018-11-05T05:25:34.122Z,65.20
2018-11-05T05:26:05.215Z,65.20
2018-11-05T05:26:36.301Z,65.20
2018-11-05T05:27:07.398Z,65.10
2018-11-05T05:27:38.482Z,65.10
2018-11-05T05:28:09.566Z,65.10
2018-11-05T05:28:40.657Z,65.00
2018-11-05T05:29:11.763Z,65.00
2018-11-05T05:29:42.850Z,65.00
2018-11-05T05:30:13.935Z,65.00
2018-11-05T05:30:45.035Z,65.00
2018-11-05T05:31:16.131Z,64.90
2018-11-05T05:31:47.215Z,65.00
2018-11-05T05:32:18.314Z,65.00
2018-11-05T05:32:49.421Z,64.90
2018-11-05T05:33:20.513Z,64.90
2018-11-05T05:33:51.619Z,64.90
2018-11-05T05:34:22.698Z,65.00
2018-11-05T05:34:53.779Z,64.90
2018-11-05T05:35:24.890Z,65.00
2018-11-05T05:35:55.981Z,65.00
2018-11-05T05:36:27.076Z,65.00
2018-11-05T05:36:58.165Z,65.00
2018-11-05T05:37:29.259Z,65.00
2018-11-05T05:38:00.339Z,65.00
2018-11-05T05:38:31.427Z,65.00
2018-11-05T05:39:02.520Z,65.00
2018-11-05T05:39:33.609Z,65.00
2018-11-05T05:40:04.696Z,65.00
2018-11-05T05:40:35.791Z,65.00
2018-11-05T05:41:06.986Z,65.00
2018-11-05T05:41:38.072Z,65.00
2018-11-05T05:42:09.164Z,65.00
2018-11-05T05:42:40.248Z,65.00
2018-11-05T05:43:11.332Z,65.00
2018-11-05T05:43:42.435Z,65.00
2018-11-05T05:44:13.554Z,65.00
2018-11-05T05:44:44.635Z,65.00
2018-11-05T05:45:15.728Z,65.10
2018-11-05T05:45:46.817Z,65.00
2018-11-05T05:46:17.909Z,65.10
2018-11-05T05:46:48.998Z,65.10
2018-11-05T05:47:20.085Z,65.10
2018-11-05T05:47:51.169Z,65.20
2018-11-05T05:48:22.257Z,65.20
2018-11-05T05:48:53.351Z,65.20
2018-11-05T05:49:24.445Z,65.20
2018-11-05T05:49:55.565Z,65.20
2018-11-05T05:50:26.637Z,65.20
2018-11-05T05:50:57.749Z,65.10
2018-11-05T05:51:28.964Z,65.20
2018-11-05T05:52:00.057Z,65.20
2018-11-05T05:52:31.213Z,66.00
2018-11-05T05:53:02.306Z,65.20
2018-11-05T05:53:33.393Z,65.20
2018-11-05T05:54:04.477Z,65.20
2018-11-05T05:54:35.573Z,65.30
2018-11-05T05:55:06.662Z,65.20
2018-11-05T05:55:37.764Z,65.20
2018-11-05T05:56:08.848Z,65.20
2018-11-05T05:56:39.934Z,65.20
2018-11-05T05:57:11.025Z,65.10
2018-11-05T05:57:42.110Z,65.10
2018-11-05T05:58:13.207Z,65.00
2018-11-05T05:58:44.295Z,65.00
2018-11-05T05:59:15.385Z,65.00
2018-11-05T05:59:46.500Z,65.00
2018-11-05T06:00:17.602Z,65.00
2018-11-05T06:00:48.693Z,65.00
2018-11-05T06:01:19.775Z,65.00
2018-11-05T06:01:50.855Z,65.00
2018-11-05T06:02:21.942Z,65.00
2018-11-05T06:02:53.027Z,65.00
2018-11-05T06:03:24.112Z,64.90
2018-11-05T06:03:55.200Z,64.90
2018-11-05T06:04:26.283Z,64.90
2018-11-05T06:04:57.391Z,64.90
2018-11-05T06:05:28.479Z,65.00
2018-11-05T06:05:59.573Z,64.90
2018-11-05T06:06:30.712Z,64.90
2018-11-05T06:07:01.749Z,64.90
2018-11-05T06:07:32.827Z,64.90
2018-11-05T06:08:03.907Z,65.00
2018-11-05T06:08:34.999Z,65.00
2018-11-05T06:09:06.088Z,65.00
2018-11-05T06:09:37.172Z,65.00
2018-11-05T06:10:08.280Z,65.00
2018-11-05T06:10:39.368Z,65.00
2018-11-05T06:11:10.457Z,65.00
2018-11-05T06:11:41.548Z,65.00
2018-11-05T06:12:12.628Z,65.00
2018-11-05T06:12:43.715Z,65.00
2018-11-05T06:13:14.813Z,65.10
2018-11-05T06:13:45.908Z,65.10
2018-11-05T06:14:17.010Z,65.90
2018-11-05T06:14:48.100Z,65.20
2018-11-05T06:15:19.197Z,65.90
2018-11-05T06:15:50.343Z,65.20
2018-11-05T06:16:21.397Z,65.90
2018-11-05T06:16:52.491Z,65.90
2018-11-05T06:17:23.577Z,65.20
2018-11-05T06:17:54.669Z,65.20
2018-11-05T06:18:25.765Z,65.20
2018-11-05T06:18:56.849Z,65.20
2018-11-05T06:19:27.937Z,65.20
2018-11-05T06:19:59.031Z,65.20
2018-11-05T06:20:30.121Z,65.30
2018-11-05T06:21:01.210Z,65.20
2018-11-05T06:21:32.306Z,65.20
2018-11-05T06:22:03.390Z,65.20
2018-11-05T06:22:34.487Z,65.20
2018-11-05T06:23:05.590Z,65.20
2018-11-05T06:23:36.691Z,65.20
2018-11-05T06:24:07.779Z,65.20
2018-11-05T06:24:38.874Z,65.20
2018-11-05T06:25:09.975Z,65.20
2018-11-05T06:25:41.063Z,65.20
2018-11-05T06:26:12.162Z,65.20
2018-11-05T06:26:43.255Z,65.20
2018-11-05T06:27:14.347Z,65.20
2018-11-05T06:27:45.422Z,65.20
2018-11-05T06:28:16.533Z,65.20
2018-11-05T06:28:47.611Z,65.20
2018-11-05T06:29:18.707Z,65.30
2018-11-05T06:29:49.795Z,65.20
2018-11-05T06:30:20.887Z,65.30
2018-11-05T06:30:51.981Z,65.30
2018-11-05T06:31:23.072Z,65.30
2018-11-05T06:31:54.160Z,65.40
2018-11-05T06:32:25.341Z,65.40
2018-11-05T06:32:56.445Z,65.30
2018-11-05T06:33:27.552Z,65.30
2018-11-05T06:33:58.633Z,65.40
2018-11-05T06:34:29.729Z,65.40
2018-11-05T06:35:00.831Z,65.30
2018-11-05T06:35:32.050Z,65.30
2018-11-05T06:36:03.027Z,65.30
2018-11-05T06:36:34.120Z,65.20
2018-11-05T06:37:05.210Z,65.20
2018-11-05T06:37:36.296Z,65.20
2018-11-05T06:38:07.384Z,65.20
2018-11-05T06:38:38.469Z,65.20
2018-11-05T06:39:09.570Z,65.20
2018-11-05T06:39:40.656Z,65.10
2018-11-05T06:40:11.740Z,65.10